sensor_id;sensor_type;location;lat;lon;timestamp;P1;durP1;ratioP1;P2;durP2;ratioP2
49310;SDS011;35177;45.900;5.946;2022-10-15T00:00:44;15.10;;;8.52;;
49310;SDS011;35177;45.900;5.946;2022-10-15T00:03:10;9.15;;;7.00;;
49310;SDS011;35177;45.900;5.946;2022-10-15T00:05:39;13.07;;;6.80;;
49310;SDS011;35177;45.900;5.946;2022-10-15T00:08:06;13.00;;;6.88;;
49310;SDS011;35177;45.900;5.946;2022-10-15T00:10:33;12.70;;;6.32;;
49310;SDS011;35177;45.900;5.946;2022-10-15T00:13:00;11.13;;;6.10;;
49310;SDS011;35177;45.900;5.946;2022-10-15T00:15:25;14.10;;;5.88;;
49310;SDS011;35177;45.900;5.946;2022-10-15T00:17:51;9.18;;;6.43;;
49310;SDS011;35177;45.900;5.946;2022-10-15T00:20:17;13.35;;;6.97;;
49310;SDS011;35177;45.900;5.946;2022-10-15T00:22:42;10.73;;;6.80;;
49310;SDS011;35177;45.900;5.946;2022-10-15T00:25:08;9.68;;;6.38;;
49310;SDS011;35177;45.900;5.946;2022-10-15T00:27:36;10.77;;;6.80;;
49310;SDS011;35177;45.900;5.946;2022-10-15T00:30:03;13.90;;;5.95;;
49310;SDS011;35177;45.900;5.946;2022-10-15T00:32:29;8.85;;;4.70;;
49310;SDS011;35177;45.900;5.946;2022-10-15T00:34:55;5.10;;;4.47;;
49310;SDS011;35177;45.900;5.946;2022-10-15T00:37:21;8.95;;;4.88;;
49310;SDS011;35177;45.900;5.946;2022-10-15T00:39:47;10.65;;;4.57;;
49310;SDS011;35177;45.900;5.946;2022-10-15T00:42:13;9.88;;;5.90;;
49310;SDS011;35177;45.900;5.946;2022-10-15T00:44:45;9.77;;;4.43;;
49310;SDS011;35177;45.900;5.946;2022-10-15T00:47:17;6.72;;;4.55;;
49310;SDS011;35177;45.900;5.946;2022-10-15T00:50:08;8.63;;;5.22;;
49310;SDS011;35177;45.900;5.946;2022-10-15T00:52:50;12.20;;;6.03;;
49310;SDS011;35177;45.900;5.946;2022-10-15T00:55:36;7.15;;;4.75;;
49310;SDS011;35177;45.900;5.946;2022-10-15T00:58:06;9.40;;;7.10;;
49310;SDS011;35177;45.900;5.946;2022-10-15T01:00:34;14.40;;;6.70;;
49310;SDS011;35177;45.900;5.946;2022-10-15T01:03:00;13.02;;;7.15;;
49310;SDS011;35177;45.900;5.946;2022-10-15T01:05:25;13.52;;;6.97;;
49310;SDS011;35177;45.900;5.946;2022-10-15T01:07:51;8.98;;;6.05;;
49310;SDS011;35177;45.900;5.946;2022-10-15T01:10:17;9.95;;;5.93;;
49310;SDS011;35177;45.900;5.946;2022-10-15T01:15:37;9.23;;;6.32;;
49310;SDS011;35177;45.900;5.946;2022-10-15T01:18:11;11.82;;;7.35;;
49310;SDS011;35177;45.900;5.946;2022-10-15T01:26:24;9.70;;;5.95;;
49310;SDS011;35177;45.900;5.946;2022-10-15T01:34:56;10.23;;;5.55;;
49310;SDS011;35177;45.900;5.946;2022-10-15T01:37:54;14.18;;;6.05;;
49310;SDS011;35177;45.900;5.946;2022-10-15T01:40:41;8.85;;;5.30;;
49310;SDS011;35177;45.900;5.946;2022-10-15T01:43:14;10.02;;;6.45;;
49310;SDS011;35177;45.900;5.946;2022-10-15T01:45:47;10.07;;;6.60;;
49310;SDS011;35177;45.900;5.946;2022-10-15T01:48:15;12.50;;;5.75;;
49310;SDS011;35177;45.900;5.946;2022-10-15T01:50:42;11.73;;;6.78;;
49310;SDS011;35177;45.900;5.946;2022-10-15T01:53:12;14.85;;;7.70;;
49310;SDS011;35177;45.900;5.946;2022-10-15T01:55:41;12.60;;;8.43;;
49310;SDS011;35177;45.900;5.946;2022-10-15T01:58:09;15.40;;;6.78;;
49310;SDS011;35177;45.900;5.946;2022-10-15T02:00:37;12.43;;;6.47;;
49310;SDS011;35177;45.900;5.946;2022-10-15T02:03:05;11.18;;;7.32;;
49310;SDS011;35177;45.900;5.946;2022-10-15T02:05:34;18.67;;;8.10;;
49310;SDS011;35177;45.900;5.946;2022-10-15T02:08:27;17.52;;;7.95;;
49310;SDS011;35177;45.900;5.946;2022-10-15T02:11:25;15.63;;;10.80;;
49310;SDS011;35177;45.900;5.946;2022-10-15T02:17:02;14.20;;;8.93;;
49310;SDS011;35177;45.900;5.946;2022-10-15T02:22:20;15.13;;;8.57;;
49310;SDS011;35177;45.900;5.946;2022-10-15T02:25:00;11.98;;;7.38;;
49310;SDS011;35177;45.900;5.946;2022-10-15T02:27:32;9.00;;;6.53;;
49310;SDS011;35177;45.900;5.946;2022-10-15T02:30:00;11.68;;;7.13;;
49310;SDS011;35177;45.900;5.946;2022-10-15T02:32:31;10.60;;;6.93;;
49310;SDS011;35177;45.900;5.946;2022-10-15T02:34:59;13.60;;;7.45;;
49310;SDS011;35177;45.900;5.946;2022-10-15T02:37:26;16.15;;;7.28;;
49310;SDS011;35177;45.900;5.946;2022-10-15T02:39:55;11.23;;;7.43;;
49310;SDS011;35177;45.900;5.946;2022-10-15T02:42:20;10.10;;;7.47;;
49310;SDS011;35177;45.900;5.946;2022-10-15T02:44:46;15.48;;;7.22;;
49310;SDS011;35177;45.900;5.946;2022-10-15T02:47:12;10.50;;;7.55;;
49310;SDS011;35177;45.900;5.946;2022-10-15T02:49:38;9.90;;;6.45;;
49310;SDS011;35177;45.900;5.946;2022-10-15T02:52:04;10.70;;;7.13;;
49310;SDS011;35177;45.900;5.946;2022-10-15T02:54:30;14.02;;;7.13;;
49310;SDS011;35177;45.900;5.946;2022-10-15T02:56:55;10.55;;;7.20;;
49310;SDS011;35177;45.900;5.946;2022-10-15T02:59:21;10.55;;;6.07;;
49310;SDS011;35177;45.900;5.946;2022-10-15T03:01:46;15.65;;;6.28;;
49310;SDS011;35177;45.900;5.946;2022-10-15T03:04:12;16.45;;;5.95;;
49310;SDS011;35177;45.900;5.946;2022-10-15T03:06:38;15.15;;;5.22;;
49310;SDS011;35177;45.900;5.946;2022-10-15T03:09:03;13.38;;;5.97;;
49310;SDS011;35177;45.900;5.946;2022-10-15T03:11:29;10.05;;;5.47;;
49310;SDS011;35177;45.900;5.946;2022-10-15T03:13:54;7.30;;;4.65;;
49310;SDS011;35177;45.900;5.946;2022-10-15T03:16:20;6.35;;;4.20;;
49310;SDS011;35177;45.900;5.946;2022-10-15T03:18:46;7.30;;;4.55;;
49310;SDS011;35177;45.900;5.946;2022-10-15T03:21:11;5.97;;;3.42;;
49310;SDS011;35177;45.900;5.946;2022-10-15T03:23:37;12.55;;;5.20;;
49310;SDS011;35177;45.900;5.946;2022-10-15T03:26:02;8.63;;;4.32;;
49310;SDS011;35177;45.900;5.946;2022-10-15T03:28:28;5.57;;;3.63;;
49310;SDS011;35177;45.900;5.946;2022-10-15T03:30:53;7.13;;;3.13;;
49310;SDS011;35177;45.900;5.946;2022-10-15T03:33:19;6.38;;;3.38;;
49310;SDS011;35177;45.900;5.946;2022-10-15T03:35:44;7.78;;;3.30;;
49310;SDS011;35177;45.900;5.946;2022-10-15T03:38:10;4.43;;;3.03;;
49310;SDS011;35177;45.900;5.946;2022-10-15T03:40:35;9.73;;;3.47;;
49310;SDS011;35177;45.900;5.946;2022-10-15T03:43:01;5.85;;;3.70;;
49310;SDS011;35177;45.900;5.946;2022-10-15T03:45:26;4.38;;;3.40;;
49310;SDS011;35177;45.900;5.946;2022-10-15T03:47:52;8.90;;;4.50;;
49310;SDS011;35177;45.900;5.946;2022-10-15T03:50:17;7.07;;;4.07;;
49310;SDS011;35177;45.900;5.946;2022-10-15T03:52:43;10.82;;;4.65;;
49310;SDS011;35177;45.900;5.946;2022-10-15T03:55:09;6.60;;;3.30;;
49310;SDS011;35177;45.900;5.946;2022-10-15T03:57:35;8.27;;;3.30;;
49310;SDS011;35177;45.900;5.946;2022-10-15T04:00:02;4.75;;;3.42;;
49310;SDS011;35177;45.900;5.946;2022-10-15T04:02:30;10.43;;;3.70;;
49310;SDS011;35177;45.900;5.946;2022-10-15T04:04:56;4.47;;;3.40;;
49310;SDS011;35177;45.900;5.946;2022-10-15T04:07:21;6.57;;;3.42;;
49310;SDS011;35177;45.900;5.946;2022-10-15T04:09:47;5.28;;;3.40;;
49310;SDS011;35177;45.900;5.946;2022-10-15T04:12:13;6.00;;;3.40;;
49310;SDS011;35177;45.900;5.946;2022-10-15T04:14:39;9.75;;;4.40;;
49310;SDS011;35177;45.900;5.946;2022-10-15T04:17:05;7.25;;;4.35;;
49310;SDS011;35177;45.900;5.946;2022-10-15T04:19:31;5.55;;;4.32;;
49310;SDS011;35177;45.900;5.946;2022-10-15T04:21:57;6.93;;;4.43;;
49310;SDS011;35177;45.900;5.946;2022-10-15T04:24:23;7.68;;;4.22;;
49310;SDS011;35177;45.900;5.946;2022-10-15T04:26:48;10.63;;;4.88;;
49310;SDS011;35177;45.900;5.946;2022-10-15T04:29:14;7.25;;;4.10;;
49310;SDS011;35177;45.900;5.946;2022-10-15T04:31:40;21.00;;;4.50;;
49310;SDS011;35177;45.900;5.946;2022-10-15T04:34:07;168.10;;;9.38;;
49310;SDS011;35177;45.900;5.946;2022-10-15T04:36:32;65.18;;;5.55;;
49310;SDS011;35177;45.900;5.946;2022-10-15T04:38:58;211.73;;;9.07;;
49310;SDS011;35177;45.900;5.946;2022-10-15T04:41:24;12.77;;;3.72;;
49310;SDS011;35177;45.900;5.946;2022-10-15T04:43:49;92.55;;;6.00;;
49310;SDS011;35177;45.900;5.946;2022-10-15T04:46:15;104.32;;;7.85;;
49310;SDS011;35177;45.900;5.946;2022-10-15T04:48:41;87.60;;;6.53;;
49310;SDS011;35177;45.900;5.946;2022-10-15T04:51:07;5.60;;;3.63;;
49310;SDS011;35177;45.900;5.946;2022-10-15T04:53:35;8.85;;;3.83;;
49310;SDS011;35177;45.900;5.946;2022-10-15T04:56:08;25.98;;;4.82;;
49310;SDS011;35177;45.900;5.946;2022-10-15T04:58:38;9.57;;;3.60;;
49310;SDS011;35177;45.900;5.946;2022-10-15T05:01:07;9.93;;;4.38;;
49310;SDS011;35177;45.900;5.946;2022-10-15T05:03:38;6.18;;;4.32;;
49310;SDS011;35177;45.900;5.946;2022-10-15T05:06:07;6.07;;;3.85;;
49310;SDS011;35177;45.900;5.946;2022-10-15T05:08:37;8.93;;;3.97;;
49310;SDS011;35177;45.900;5.946;2022-10-15T05:11:07;7.82;;;4.35;;
49310;SDS011;35177;45.900;5.946;2022-10-15T05:13:35;4.80;;;4.25;;
49310;SDS011;35177;45.900;5.946;2022-10-15T05:16:07;5.32;;;4.05;;
49310;SDS011;35177;45.900;5.946;2022-10-15T05:18:41;5.40;;;4.90;;
49310;SDS011;35177;45.900;5.946;2022-10-15T05:21:08;7.28;;;4.47;;
49310;SDS011;35177;45.900;5.946;2022-10-15T05:23:34;8.80;;;5.10;;
49310;SDS011;35177;45.900;5.946;2022-10-15T05:26:05;10.30;;;4.53;;
49310;SDS011;35177;45.900;5.946;2022-10-15T05:28:32;17.67;;;4.90;;
49310;SDS011;35177;45.900;5.946;2022-10-15T05:31:08;6.38;;;4.40;;
49310;SDS011;35177;45.900;5.946;2022-10-15T05:33:36;4.30;;;3.90;;
49310;SDS011;35177;45.900;5.946;2022-10-15T05:36:11;8.43;;;3.65;;
49310;SDS011;35177;45.900;5.946;2022-10-15T05:38:38;7.43;;;3.97;;
49310;SDS011;35177;45.900;5.946;2022-10-15T05:41:04;4.95;;;3.70;;
49310;SDS011;35177;45.900;5.946;2022-10-15T05:43:30;4.85;;;3.63;;
49310;SDS011;35177;45.900;5.946;2022-10-15T05:45:55;6.63;;;3.33;;
49310;SDS011;35177;45.900;5.946;2022-10-15T05:48:21;8.63;;;4.00;;
49310;SDS011;35177;45.900;5.946;2022-10-15T05:50:46;10.40;;;4.57;;
49310;SDS011;35177;45.900;5.946;2022-10-15T05:53:12;6.18;;;4.03;;
49310;SDS011;35177;45.900;5.946;2022-10-15T05:55:37;9.48;;;3.95;;
49310;SDS011;35177;45.900;5.946;2022-10-15T05:58:03;4.90;;;4.00;;
49310;SDS011;35177;45.900;5.946;2022-10-15T06:00:29;4.78;;;3.83;;
49310;SDS011;35177;45.900;5.946;2022-10-15T06:02:55;3.80;;;3.40;;
49310;SDS011;35177;45.900;5.946;2022-10-15T06:05:21;5.43;;;3.90;;
49310;SDS011;35177;45.900;5.946;2022-10-15T06:07:47;6.13;;;3.70;;
49310;SDS011;35177;45.900;5.946;2022-10-15T06:10:12;4.72;;;3.97;;
49310;SDS011;35177;45.900;5.946;2022-10-15T06:12:38;5.65;;;4.00;;
49310;SDS011;35177;45.900;5.946;2022-10-15T06:15:04;4.90;;;3.42;;
49310;SDS011;35177;45.900;5.946;2022-10-15T06:17:30;7.32;;;3.88;;
49310;SDS011;35177;45.900;5.946;2022-10-15T06:19:55;6.30;;;4.13;;
49310;SDS011;35177;45.900;5.946;2022-10-15T06:22:21;6.15;;;4.40;;
49310;SDS011;35177;45.900;5.946;2022-10-15T06:24:46;4.95;;;3.40;;
49310;SDS011;35177;45.900;5.946;2022-10-15T06:27:12;9.20;;;3.97;;
49310;SDS011;35177;45.900;5.946;2022-10-15T06:29:39;7.72;;;3.90;;
49310;SDS011;35177;45.900;5.946;2022-10-15T06:32:10;12.38;;;3.50;;
49310;SDS011;35177;45.900;5.946;2022-10-15T06:34:36;6.63;;;3.60;;
49310;SDS011;35177;45.900;5.946;2022-10-15T06:37:01;5.38;;;3.58;;
49310;SDS011;35177;45.900;5.946;2022-10-15T06:39:27;9.98;;;3.60;;
49310;SDS011;35177;45.900;5.946;2022-10-15T06:41:53;5.97;;;3.60;;
49310;SDS011;35177;45.900;5.946;2022-10-15T06:44:18;8.82;;;3.50;;
49310;SDS011;35177;45.900;5.946;2022-10-15T06:46:44;6.93;;;4.00;;
49310;SDS011;35177;45.900;5.946;2022-10-15T06:49:10;10.50;;;5.60;;
49310;SDS011;35177;45.900;5.946;2022-10-15T06:51:35;10.32;;;5.72;;
49310;SDS011;35177;45.900;5.946;2022-10-15T06:54:02;10.35;;;6.07;;
49310;SDS011;35177;45.900;5.946;2022-10-15T06:56:28;11.65;;;7.22;;
49310;SDS011;35177;45.900;5.946;2022-10-15T06:58:53;8.57;;;7.25;;
49310;SDS011;35177;45.900;5.946;2022-10-15T07:01:19;9.52;;;7.55;;
49310;SDS011;35177;45.900;5.946;2022-10-15T07:03:47;9.48;;;6.85;;
49310;SDS011;35177;45.900;5.946;2022-10-15T07:06:14;14.02;;;7.80;;
49310;SDS011;35177;45.900;5.946;2022-10-15T07:08:39;12.05;;;7.43;;
49310;SDS011;35177;45.900;5.946;2022-10-15T07:11:06;8.40;;;6.60;;
49310;SDS011;35177;45.900;5.946;2022-10-15T07:13:35;10.38;;;7.43;;
49310;SDS011;35177;45.900;5.946;2022-10-15T07:16:05;13.88;;;9.10;;
49310;SDS011;35177;45.900;5.946;2022-10-15T07:18:32;15.05;;;8.38;;
49310;SDS011;35177;45.900;5.946;2022-10-15T07:20:58;15.95;;;7.78;;
49310;SDS011;35177;45.900;5.946;2022-10-15T07:23:24;10.32;;;7.60;;
49310;SDS011;35177;45.900;5.946;2022-10-15T07:25:49;13.43;;;7.78;;
49310;SDS011;35177;45.900;5.946;2022-10-15T07:28:15;10.25;;;7.35;;
49310;SDS011;35177;45.900;5.946;2022-10-15T07:30:40;13.05;;;8.82;;
49310;SDS011;35177;45.900;5.946;2022-10-15T07:33:06;9.20;;;7.57;;
49310;SDS011;35177;45.900;5.946;2022-10-15T07:35:31;12.30;;;7.50;;
49310;SDS011;35177;45.900;5.946;2022-10-15T07:38:01;10.68;;;6.35;;
49310;SDS011;35177;45.900;5.946;2022-10-15T07:40:26;10.25;;;5.50;;
49310;SDS011;35177;45.900;5.946;2022-10-15T07:42:52;10.52;;;6.20;;
49310;SDS011;35177;45.900;5.946;2022-10-15T07:45:19;8.88;;;6.65;;
49310;SDS011;35177;45.900;5.946;2022-10-15T07:47:45;12.45;;;5.57;;
49310;SDS011;35177;45.900;5.946;2022-10-15T07:50:10;8.70;;;6.95;;
49310;SDS011;35177;45.900;5.946;2022-10-15T07:52:36;13.65;;;7.03;;
49310;SDS011;35177;45.900;5.946;2022-10-15T07:55:01;10.07;;;5.90;;
49310;SDS011;35177;45.900;5.946;2022-10-15T07:57:27;8.23;;;6.43;;
49310;SDS011;35177;45.900;5.946;2022-10-15T07:59:52;7.63;;;5.90;;
49310;SDS011;35177;45.900;5.946;2022-10-15T08:02:18;11.63;;;6.05;;
49310;SDS011;35177;45.900;5.946;2022-10-15T08:04:44;11.57;;;6.25;;
49310;SDS011;35177;45.900;5.946;2022-10-15T08:07:10;17.33;;;6.55;;
49310;SDS011;35177;45.900;5.946;2022-10-15T08:09:35;10.52;;;5.78;;
49310;SDS011;35177;45.900;5.946;2022-10-15T08:12:01;8.30;;;6.28;;
49310;SDS011;35177;45.900;5.946;2022-10-15T08:14:27;10.85;;;5.75;;
49310;SDS011;35177;45.900;5.946;2022-10-15T08:16:52;6.55;;;5.72;;
49310;SDS011;35177;45.900;5.946;2022-10-15T08:19:18;8.13;;;5.60;;
49310;SDS011;35177;45.900;5.946;2022-10-15T08:21:44;7.97;;;5.57;;
49310;SDS011;35177;45.900;5.946;2022-10-15T08:24:10;7.00;;;5.30;;
49310;SDS011;35177;45.900;5.946;2022-10-15T08:26:35;7.10;;;5.47;;
49310;SDS011;35177;45.900;5.946;2022-10-15T08:29:01;8.75;;;5.45;;
49310;SDS011;35177;45.900;5.946;2022-10-15T08:31:27;9.25;;;5.72;;
49310;SDS011;35177;45.900;5.946;2022-10-15T08:33:52;7.93;;;5.55;;
49310;SDS011;35177;45.900;5.946;2022-10-15T08:36:18;6.32;;;5.32;;
49310;SDS011;35177;45.900;5.946;2022-10-15T08:38:43;9.23;;;5.35;;
49310;SDS011;35177;45.900;5.946;2022-10-15T08:41:52;13.27;;;5.35;;
49310;SDS011;35177;45.900;5.946;2022-10-15T08:44:08;7.45;;;4.93;;
49310;SDS011;35177;45.900;5.946;2022-10-15T08:46:41;7.75;;;5.95;;
49310;SDS011;35177;45.900;5.946;2022-10-15T08:49:19;8.82;;;5.43;;
49310;SDS011;35177;45.900;5.946;2022-10-15T08:51:56;12.13;;;5.95;;
49310;SDS011;35177;45.900;5.946;2022-10-15T08:54:30;10.65;;;4.95;;
49310;SDS011;35177;45.900;5.946;2022-10-15T08:57:08;7.93;;;5.05;;
49310;SDS011;35177;45.900;5.946;2022-10-15T08:59:44;7.07;;;5.00;;
49310;SDS011;35177;45.900;5.946;2022-10-15T09:02:25;4.68;;;4.20;;
49310;SDS011;35177;45.900;5.946;2022-10-15T09:08:01;10.10;;;5.00;;
49310;SDS011;35177;45.900;5.946;2022-10-15T09:10:58;11.35;;;5.15;;
49310;SDS011;35177;45.900;5.946;2022-10-15T09:13:29;10.13;;;4.97;;
49310;SDS011;35177;45.900;5.946;2022-10-15T09:16:04;5.88;;;5.28;;
49310;SDS011;35177;45.900;5.946;2022-10-15T09:18:38;5.57;;;4.75;;
49310;SDS011;35177;45.900;5.946;2022-10-15T09:21:10;6.63;;;4.80;;
49310;SDS011;35177;45.900;5.946;2022-10-15T09:23:38;10.02;;;4.85;;
49310;SDS011;35177;45.900;5.946;2022-10-15T09:26:08;5.45;;;4.53;;
49310;SDS011;35177;45.900;5.946;2022-10-15T09:32:12;7.38;;;4.50;;
49310;SDS011;35177;45.900;5.946;2022-10-15T09:34:56;5.45;;;3.80;;
49310;SDS011;35177;45.900;5.946;2022-10-15T09:37:30;6.30;;;3.83;;
49310;SDS011;35177;45.900;5.946;2022-10-15T09:42:35;5.18;;;3.30;;
49310;SDS011;35177;45.900;5.946;2022-10-15T09:45:04;7.78;;;3.60;;
49310;SDS011;35177;45.900;5.946;2022-10-15T09:47:34;4.43;;;3.03;;
49310;SDS011;35177;45.900;5.946;2022-10-15T09:50:04;4.18;;;3.20;;
49310;SDS011;35177;45.900;5.946;2022-10-15T09:58:10;6.63;;;3.70;;
49310;SDS011;35177;45.900;5.946;2022-10-15T10:00:51;4.97;;;3.17;;
49310;SDS011;35177;45.900;5.946;2022-10-15T10:03:20;6.50;;;3.38;;
49310;SDS011;35177;45.900;5.946;2022-10-15T10:05:47;5.20;;;3.22;;
49310;SDS011;35177;45.900;5.946;2022-10-15T10:10:53;8.25;;;3.13;;
49310;SDS011;35177;45.900;5.946;2022-10-15T10:13:23;6.47;;;3.42;;
49310;SDS011;35177;45.900;5.946;2022-10-15T10:15:54;9.80;;;3.78;;
49310;SDS011;35177;45.900;5.946;2022-10-15T10:18:26;3.65;;;2.95;;
49310;SDS011;35177;45.900;5.946;2022-10-15T10:20:53;8.40;;;3.08;;
49310;SDS011;35177;45.900;5.946;2022-10-15T10:23:30;5.78;;;3.47;;
49310;SDS011;35177;45.900;5.946;2022-10-15T10:26:01;5.32;;;3.20;;
49310;SDS011;35177;45.900;5.946;2022-10-15T10:28:33;3.75;;;2.78;;
49310;SDS011;35177;45.900;5.946;2022-10-15T10:31:06;7.15;;;3.08;;
49310;SDS011;35177;45.900;5.946;2022-10-15T10:33:40;3.47;;;2.65;;
49310;SDS011;35177;45.900;5.946;2022-10-15T10:36:06;3.83;;;2.75;;
49310;SDS011;35177;45.900;5.946;2022-10-15T10:38:43;5.10;;;3.10;;
49310;SDS011;35177;45.900;5.946;2022-10-15T10:44:37;5.18;;;2.20;;
49310;SDS011;35177;45.900;5.946;2022-10-15T10:49:36;3.40;;;2.58;;
49310;SDS011;35177;45.900;5.946;2022-10-15T10:52:04;7.60;;;2.78;;
49310;SDS011;35177;45.900;5.946;2022-10-15T10:54:30;3.53;;;2.42;;
49310;SDS011;35177;45.900;5.946;2022-10-15T10:56:57;4.72;;;2.60;;
49310;SDS011;35177;45.900;5.946;2022-10-15T10:59:26;4.38;;;2.50;;
49310;SDS011;35177;45.900;5.946;2022-10-15T11:02:10;5.88;;;2.05;;
49310;SDS011;35177;45.900;5.946;2022-10-15T11:04:37;3.78;;;2.30;;
49310;SDS011;35177;45.900;5.946;2022-10-15T11:07:07;3.83;;;2.40;;
49310;SDS011;35177;45.900;5.946;2022-10-15T11:18:12;2.58;;;2.00;;
49310;SDS011;35177;45.900;5.946;2022-10-15T11:28:59;3.35;;;2.38;;
49310;SDS011;35177;45.900;5.946;2022-10-15T11:34:17;3.97;;;2.03;;
49310;SDS011;35177;45.900;5.946;2022-10-15T11:39:40;7.85;;;1.95;;
49310;SDS011;35177;45.900;5.946;2022-10-15T11:47:52;2.40;;;1.50;;
49310;SDS011;35177;45.900;5.946;2022-10-15T11:50:27;1.50;;;1.10;;
49310;SDS011;35177;45.900;5.946;2022-10-15T11:56:04;2.35;;;1.10;;
49310;SDS011;35177;45.900;5.946;2022-10-15T11:58:42;4.50;;;1.25;;
49310;SDS011;35177;45.900;5.946;2022-10-15T12:01:19;2.42;;;1.50;;
49310;SDS011;35177;45.900;5.946;2022-10-15T12:03:50;3.80;;;1.10;;
49310;SDS011;35177;45.900;5.946;2022-10-15T12:06:20;1.77;;;0.90;;
49310;SDS011;35177;45.900;5.946;2022-10-15T12:08:48;3.00;;;0.90;;
49310;SDS011;35177;45.900;5.946;2022-10-15T12:13:47;1.00;;;0.90;;
49310;SDS011;35177;45.900;5.946;2022-10-15T12:16:40;2.83;;;0.82;;
49310;SDS011;35177;45.900;5.946;2022-10-15T12:19:16;0.90;;;0.80;;
49310;SDS011;35177;45.900;5.946;2022-10-15T12:29:43;4.63;;;1.10;;
49310;SDS011;35177;45.900;5.946;2022-10-15T12:32:22;2.03;;;1.30;;
49310;SDS011;35177;45.900;5.946;2022-10-15T12:34:56;6.35;;;1.20;;
49310;SDS011;35177;45.900;5.946;2022-10-15T12:37:25;1.67;;;0.80;;
49310;SDS011;35177;45.900;5.946;2022-10-15T12:39:56;1.67;;;0.63;;
49310;SDS011;35177;45.900;5.946;2022-10-15T12:44:56;0.63;;;0.63;;
49310;SDS011;35177;45.900;5.946;2022-10-15T12:50:19;2.65;;;0.73;;
49310;SDS011;35177;45.900;5.946;2022-10-15T12:55:19;0.82;;;0.80;;
49310;SDS011;35177;45.900;5.946;2022-10-15T12:57:55;2.17;;;0.80;;
49310;SDS011;35177;45.900;5.946;2022-10-15T13:02:57;2.10;;;0.75;;
49310;SDS011;35177;45.900;5.946;2022-10-15T13:05:38;0.95;;;0.60;;
49310;SDS011;35177;45.900;5.946;2022-10-15T13:08:09;0.73;;;0.70;;
49310;SDS011;35177;45.900;5.946;2022-10-15T13:10:56;2.53;;;0.90;;
49310;SDS011;35177;45.900;5.946;2022-10-15T13:13:25;1.58;;;0.80;;
49310;SDS011;35177;45.900;5.946;2022-10-15T13:16:05;1.38;;;0.85;;
49310;SDS011;35177;45.900;5.946;2022-10-15T13:18:33;2.88;;;0.93;;
49310;SDS011;35177;45.900;5.946;2022-10-15T13:20:59;0.98;;;0.75;;
49310;SDS011;35177;45.900;5.946;2022-10-15T13:23:26;1.23;;;0.80;;
49310;SDS011;35177;45.900;5.946;2022-10-15T13:28:43;4.00;;;0.90;;
49310;SDS011;35177;45.900;5.946;2022-10-15T13:31:18;3.15;;;1.05;;
49310;SDS011;35177;45.900;5.946;2022-10-15T13:36:44;3.53;;;0.63;;
49310;SDS011;35177;45.900;5.946;2022-10-15T13:41:50;2.88;;;0.80;;
49310;SDS011;35177;45.900;5.946;2022-10-15T13:44:22;0.77;;;0.47;;
49310;SDS011;35177;45.900;5.946;2022-10-15T13:46:49;4.00;;;0.57;;
49310;SDS011;35177;45.900;5.946;2022-10-15T13:49:15;1.77;;;0.50;;
49310;SDS011;35177;45.900;5.946;2022-10-15T13:51:46;2.17;;;0.75;;
49310;SDS011;35177;45.900;5.946;2022-10-15T13:54:15;1.30;;;0.50;;
49310;SDS011;35177;45.900;5.946;2022-10-15T13:56:48;0.57;;;0.57;;
49310;SDS011;35177;45.900;5.946;2022-10-15T13:59:21;1.52;;;0.70;;
49310;SDS011;35177;45.900;5.946;2022-10-15T14:01:53;1.05;;;0.60;;
49310;SDS011;35177;45.900;5.946;2022-10-15T14:04:25;1.25;;;0.65;;
49310;SDS011;35177;45.900;5.946;2022-10-15T14:06:59;1.95;;;0.80;;
49310;SDS011;35177;45.900;5.946;2022-10-15T14:09:28;0.65;;;0.50;;
49310;SDS011;35177;45.900;5.946;2022-10-15T14:11:58;2.13;;;0.70;;
49310;SDS011;35177;45.900;5.946;2022-10-15T14:14:29;5.45;;;0.90;;
49310;SDS011;35177;45.900;5.946;2022-10-15T14:17:06;1.75;;;0.60;;
49310;SDS011;35177;45.900;5.946;2022-10-15T14:19:37;1.10;;;0.50;;
49310;SDS011;35177;45.900;5.946;2022-10-15T14:22:03;5.65;;;0.70;;
49310;SDS011;35177;45.900;5.946;2022-10-15T14:24:33;0.73;;;0.60;;
49310;SDS011;35177;45.900;5.946;2022-10-15T14:27:11;1.55;;;0.73;;
49310;SDS011;35177;45.900;5.946;2022-10-15T14:29:58;1.95;;;0.43;;
49310;SDS011;35177;45.900;5.946;2022-10-15T14:32:26;1.30;;;0.70;;
49310;SDS011;35177;45.900;5.946;2022-10-15T14:34:54;1.88;;;0.43;;
49310;SDS011;35177;45.900;5.946;2022-10-15T14:40:22;2.65;;;0.90;;
49310;SDS011;35177;45.900;5.946;2022-10-15T14:43:06;1.75;;;0.75;;
49310;SDS011;35177;45.900;5.946;2022-10-15T14:45:41;1.77;;;0.70;;
49310;SDS011;35177;45.900;5.946;2022-10-15T14:48:19;1.30;;;0.60;;
49310;SDS011;35177;45.900;5.946;2022-10-15T14:50:51;1.48;;;0.80;;
49310;SDS011;35177;45.900;5.946;2022-10-15T14:53:23;2.83;;;0.73;;
49310;SDS011;35177;45.900;5.946;2022-10-15T14:55:55;0.82;;;0.60;;
49310;SDS011;35177;45.900;5.946;2022-10-15T14:58:24;0.50;;;0.50;;
49310;SDS011;35177;45.900;5.946;2022-10-15T15:01:00;1.55;;;0.80;;
49310;SDS011;35177;45.900;5.946;2022-10-15T15:03:41;5.53;;;1.13;;
49310;SDS011;35177;45.900;5.946;2022-10-15T15:06:11;0.68;;;0.60;;
49310;SDS011;35177;45.900;5.946;2022-10-15T15:08:38;4.57;;;0.63;;
49310;SDS011;35177;45.900;5.946;2022-10-15T15:11:04;3.60;;;0.77;;
49310;SDS011;35177;45.900;5.946;2022-10-15T15:13:38;0.70;;;0.70;;
49310;SDS011;35177;45.900;5.946;2022-10-15T15:16:08;4.43;;;0.60;;
49310;SDS011;35177;45.900;5.946;2022-10-15T15:18:36;1.27;;;0.88;;
49310;SDS011;35177;45.900;5.946;2022-10-15T15:21:03;0.93;;;0.57;;
49310;SDS011;35177;45.900;5.946;2022-10-15T15:23:31;0.90;;;0.80;;
49310;SDS011;35177;45.900;5.946;2022-10-15T15:25:57;6.18;;;0.70;;
49310;SDS011;35177;45.900;5.946;2022-10-15T15:28:24;2.08;;;0.70;;
49310;SDS011;35177;45.900;5.946;2022-10-15T15:30:55;1.70;;;0.75;;
49310;SDS011;35177;45.900;5.946;2022-10-15T15:33:23;0.68;;;0.68;;
49310;SDS011;35177;45.900;5.946;2022-10-15T15:35:50;2.70;;;0.75;;
49310;SDS011;35177;45.900;5.946;2022-10-15T15:38:22;0.68;;;0.68;;
49310;SDS011;35177;45.900;5.946;2022-10-15T15:40:54;5.57;;;1.20;;
49310;SDS011;35177;45.900;5.946;2022-10-15T15:43:25;2.35;;;0.70;;
49310;SDS011;35177;45.900;5.946;2022-10-15T15:45:51;5.38;;;0.80;;
49310;SDS011;35177;45.900;5.946;2022-10-15T15:48:16;1.13;;;0.80;;
49310;SDS011;35177;45.900;5.946;2022-10-15T15:50:42;3.78;;;0.70;;
49310;SDS011;35177;45.900;5.946;2022-10-15T15:53:07;1.65;;;0.70;;
49310;SDS011;35177;45.900;5.946;2022-10-15T15:55:35;1.33;;;0.77;;
49310;SDS011;35177;45.900;5.946;2022-10-15T15:58:01;0.82;;;0.63;;
49310;SDS011;35177;45.900;5.946;2022-10-15T16:00:26;2.95;;;0.95;;
49310;SDS011;35177;45.900;5.946;2022-10-15T16:02:52;1.90;;;0.73;;
49310;SDS011;35177;45.900;5.946;2022-10-15T16:05:17;6.50;;;1.00;;
49310;SDS011;35177;45.900;5.946;2022-10-15T16:07:43;2.95;;;0.82;;
49310;SDS011;35177;45.900;5.946;2022-10-15T16:10:09;1.05;;;0.77;;
49310;SDS011;35177;45.900;5.946;2022-10-15T16:12:39;5.80;;;1.00;;
49310;SDS011;35177;45.900;5.946;2022-10-15T16:15:07;5.30;;;0.90;;
49310;SDS011;35177;45.900;5.946;2022-10-15T16:17:33;8.60;;;0.90;;
49310;SDS011;35177;45.900;5.946;2022-10-15T16:19:58;0.65;;;0.65;;
49310;SDS011;35177;45.900;5.946;2022-10-15T16:22:24;4.45;;;0.95;;
49310;SDS011;35177;45.900;5.946;2022-10-15T16:24:50;4.53;;;0.95;;
49310;SDS011;35177;45.900;5.946;2022-10-15T16:27:15;4.47;;;1.23;;
49310;SDS011;35177;45.900;5.946;2022-10-15T16:29:41;4.25;;;0.85;;
49310;SDS011;35177;45.900;5.946;2022-10-15T16:32:06;3.00;;;1.20;;
49310;SDS011;35177;45.900;5.946;2022-10-15T16:34:32;2.58;;;0.75;;
49310;SDS011;35177;45.900;5.946;2022-10-15T16:36:57;2.00;;;0.90;;
49310;SDS011;35177;45.900;5.946;2022-10-15T16:39:23;4.68;;;1.00;;
49310;SDS011;35177;45.900;5.946;2022-10-15T16:41:48;2.35;;;1.00;;